This is the latest recevied weather packets stored in our database for station/object N5KR. If no packets are shown the sender has not sent any weather packets the latest 10 day(s).
| Time | Temp. | Humidity | Pressure | Rain* | Wind** | Luminosity | Snow |
|---|---|---|---|---|---|---|---|
| 1777594805 | 16.67° C | 72% | 1014.8 hPa | 0 mm | - | 8 W/m² | - |
| 1777594205 | 16.67° C | 71% | 1014.4 hPa | 0 mm | - | 8 W/m² | - |
| 1777593305 | 16.67° C | 71% | 1013.8 hPa | 0 mm | - | 16 W/m² | - |
| 1777591205 | 16.67° C | 71% | 1013.9 hPa | 0 mm | - | 35 W/m² | - |
| 1777584904 | 16.67° C | 74% | 1014.3 hPa | 0 mm | - | 38 W/m² | - |
| 1777582804 | 16.67° C | 74% | 1013.9 hPa | 0 mm | - | 121 W/m² | - |
| 1777581005 | 16.67° C | 74% | 1013.5 hPa | 0 mm | - | 111 W/m² | - |
| 1777580405 | 16.67° C | 74% | 1014.2 hPa | 0 mm | - | 114 W/m² | - |
| 1777576505 | 16.67° C | 76% | 1014.3 hPa | 0 mm | - | 77 W/m² | - |
| 1777573805 | 16.67° C | 78% | 1013.8 hPa | 0 mm | - | 239 W/m² | - |
| 1777572305 | 16.11° C | 82% | 1014.5 hPa | 0 mm | - | 109 W/m² | - |
| 1777570205 | 16.11° C | 86% | 1015 hPa | 0 mm | - | 68 W/m² | - |
| 1777568705 | 16.11° C | 85% | 1016 hPa | 0 mm | - | 75 W/m² | - |
| 1777567805 | 16.67° C | 82% | 1016.9 hPa | 0 mm | - | 57 W/m² | - |
| 1777566604 | 16.67° C | 82% | 1016.9 hPa | 0 mm | - | 19 W/m² | - |
| 1777564505 | 16.67° C | 80% | 1016.8 hPa | 0 mm | - | 35 W/m² | - |
| 1777563605 | 17.22° C | 80% | 1016.6 hPa | 0 mm | - | 38 W/m² | - |
| 1777563305 | 17.22° C | 80% | 1016.2 hPa | 0 mm | - | 59 W/m² | - |
| 1777558804 | 16.11° C | 85% | 1015.1 hPa | 0 mm | - | 71 W/m² | - |
| 1777555504 | 15.56° C | 88% | 1014.9 hPa | 0 mm | - | 69 W/m² | - |
| 1777554905 | 15.56° C | 89% | 1014.5 hPa | 0 mm | - | 79 W/m² | - |
| 1777554305 | 15° C | 89% | 1015 hPa | 0 mm | - | 63 W/m² | - |
| 1777553705 | 15° C | 89% | 1015 hPa | 0 mm | - | 57 W/m² | - |
| 1777551904 | 14.44° C | 90% | 1014.9 hPa | 0 mm | - | 40 W/m² | - |
| 1777547404 | 15° C | 88% | 1014.4 hPa | 0 mm | - | 0 W/m² | - |
* Rain latest hour (hover to see other rain measurements)
** Current wind speed in m/s (hover to see current wind gust speed)